sensor_id;sensor_type;location;lat;lon;timestamp;P1;durP1;ratioP1;P2;durP2;ratioP2
14592;SDS011;7383;52.354;9.756;2024-03-08T00:02:15;9.73;;;8.80;;
14592;SDS011;7383;52.354;9.756;2024-03-08T00:04:41;10.20;;;9.18;;
14592;SDS011;7383;52.354;9.756;2024-03-08T00:07:09;12.40;;;9.50;;
14592;SDS011;7383;52.354;9.756;2024-03-08T00:09:36;10.57;;;9.57;;
14592;SDS011;7383;52.354;9.756;2024-03-08T00:12:02;10.35;;;9.30;;
14592;SDS011;7383;52.354;9.756;2024-03-08T00:14:29;11.43;;;9.60;;
14592;SDS011;7383;52.354;9.756;2024-03-08T00:16:57;10.52;;;9.45;;
14592;SDS011;7383;52.354;9.756;2024-03-08T00:19:23;9.88;;;8.90;;
14592;SDS011;7383;52.354;9.756;2024-03-08T00:21:49;10.55;;;9.55;;
14592;SDS011;7383;52.354;9.756;2024-03-08T00:24:16;10.32;;;9.32;;
14592;SDS011;7383;52.354;9.756;2024-03-08T00:26:42;10.93;;;9.80;;
14592;SDS011;7383;52.354;9.756;2024-03-08T00:29:08;10.13;;;9.15;;
14592;SDS011;7383;52.354;9.756;2024-03-08T00:31:35;10.65;;;9.65;;
14592;SDS011;7383;52.354;9.756;2024-03-08T00:34:02;10.95;;;9.63;;
14592;SDS011;7383;52.354;9.756;2024-03-08T00:36:29;10.65;;;9.65;;
14592;SDS011;7383;52.354;9.756;2024-03-08T00:38:56;10.57;;;9.52;;
14592;SDS011;7383;52.354;9.756;2024-03-08T00:41:22;11.20;;;9.68;;
14592;SDS011;7383;52.354;9.756;2024-03-08T00:43:52;10.23;;;9.13;;
14592;SDS011;7383;52.354;9.756;2024-03-08T00:46:18;11.95;;;9.68;;
14592;SDS011;7383;52.354;9.756;2024-03-08T00:48:45;10.48;;;9.48;;
14592;SDS011;7383;52.354;9.756;2024-03-08T00:51:13;10.25;;;9.15;;
14592;SDS011;7383;52.354;9.756;2024-03-08T00:53:41;11.02;;;9.60;;
14592;SDS011;7383;52.354;9.756;2024-03-08T00:56:08;11.25;;;10.05;;
14592;SDS011;7383;52.354;9.756;2024-03-08T00:58:35;11.05;;;9.98;;
14592;SDS011;7383;52.354;9.756;2024-03-08T01:01:02;12.35;;;10.57;;
14592;SDS011;7383;52.354;9.756;2024-03-08T01:03:29;11.57;;;10.10;;
14592;SDS011;7383;52.354;9.756;2024-03-08T01:05:56;10.75;;;9.65;;
14592;SDS011;7383;52.354;9.756;2024-03-08T01:08:27;10.40;;;9.35;;
14592;SDS011;7383;52.354;9.756;2024-03-08T01:10:53;10.52;;;9.40;;
14592;SDS011;7383;52.354;9.756;2024-03-08T01:13:20;11.63;;;10.30;;
14592;SDS011;7383;52.354;9.756;2024-03-08T01:15:46;12.50;;;10.50;;
14592;SDS011;7383;52.354;9.756;2024-03-08T01:18:12;12.05;;;10.20;;
14592;SDS011;7383;52.354;9.756;2024-03-08T01:20:39;12.68;;;9.88;;
14592;SDS011;7383;52.354;9.756;2024-03-08T01:23:06;14.18;;;10.35;;
14592;SDS011;7383;52.354;9.756;2024-03-08T01:25:34;11.82;;;10.63;;
14592;SDS011;7383;52.354;9.756;2024-03-08T01:28:00;11.40;;;10.02;;
14592;SDS011;7383;52.354;9.756;2024-03-08T01:30:27;10.55;;;9.38;;
14592;SDS011;7383;52.354;9.756;2024-03-08T01:32:53;12.20;;;10.18;;
14592;SDS011;7383;52.354;9.756;2024-03-08T01:35:20;12.45;;;10.73;;
14592;SDS011;7383;52.354;9.756;2024-03-08T01:37:47;11.63;;;10.43;;
14592;SDS011;7383;52.354;9.756;2024-03-08T01:40:14;11.98;;;10.07;;
14592;SDS011;7383;52.354;9.756;2024-03-08T01:42:43;12.23;;;10.27;;
14592;SDS011;7383;52.354;9.756;2024-03-08T01:45:09;11.25;;;10.05;;
14592;SDS011;7383;52.354;9.756;2024-03-08T01:47:36;12.23;;;10.63;;
14592;SDS011;7383;52.354;9.756;2024-03-08T01:50:03;10.50;;;9.40;;
14592;SDS011;7383;52.354;9.756;2024-03-08T01:52:31;11.98;;;10.55;;
14592;SDS011;7383;52.354;9.756;2024-03-08T01:54:58;11.65;;;10.35;;
14592;SDS011;7383;52.354;9.756;2024-03-08T01:57:25;12.73;;;10.63;;
14592;SDS011;7383;52.354;9.756;2024-03-08T01:59:53;10.70;;;9.65;;
14592;SDS011;7383;52.354;9.756;2024-03-08T02:02:20;12.35;;;10.57;;
14592;SDS011;7383;52.354;9.756;2024-03-08T02:04:47;11.32;;;10.18;;
14592;SDS011;7383;52.354;9.756;2024-03-08T02:07:14;11.43;;;10.23;;
14592;SDS011;7383;52.354;9.756;2024-03-08T02:09:40;11.07;;;9.88;;
14592;SDS011;7383;52.354;9.756;2024-03-08T02:12:07;11.75;;;10.57;;
14592;SDS011;7383;52.354;9.756;2024-03-08T02:14:34;11.55;;;10.35;;
14592;SDS011;7383;52.354;9.756;2024-03-08T02:17:01;12.85;;;10.65;;
14592;SDS011;7383;52.354;9.756;2024-03-08T02:19:29;12.32;;;10.65;;
14592;SDS011;7383;52.354;9.756;2024-03-08T02:21:56;10.82;;;9.73;;
14592;SDS011;7383;52.354;9.756;2024-03-08T02:24:23;11.70;;;10.50;;
14592;SDS011;7383;52.354;9.756;2024-03-08T02:26:50;10.38;;;9.35;;
14592;SDS011;7383;52.354;9.756;2024-03-08T02:29:18;12.70;;;10.90;;
14592;SDS011;7383;52.354;9.756;2024-03-08T02:31:45;11.98;;;10.70;;
14592;SDS011;7383;52.354;9.756;2024-03-08T02:34:11;11.88;;;10.50;;
14592;SDS011;7383;52.354;9.756;2024-03-08T02:36:38;11.63;;;10.43;;
14592;SDS011;7383;52.354;9.756;2024-03-08T02:39:06;11.95;;;10.75;;
14592;SDS011;7383;52.354;9.756;2024-03-08T02:41:33;11.80;;;10.50;;
14592;SDS011;7383;52.354;9.756;2024-03-08T02:43:59;12.43;;;10.55;;
14592;SDS011;7383;52.354;9.756;2024-03-08T02:46:26;11.43;;;9.52;;
14592;SDS011;7383;52.354;9.756;2024-03-08T02:48:52;11.85;;;10.60;;
14592;SDS011;7383;52.354;9.756;2024-03-08T02:51:18;13.65;;;11.25;;
14592;SDS011;7383;52.354;9.756;2024-03-08T02:53:45;12.30;;;11.00;;
14592;SDS011;7383;52.354;9.756;2024-03-08T02:56:15;13.88;;;11.35;;
14592;SDS011;7383;52.354;9.756;2024-03-08T02:58:41;11.85;;;10.70;;
14592;SDS011;7383;52.354;9.756;2024-03-08T03:01:08;13.50;;;10.07;;
14592;SDS011;7383;52.354;9.756;2024-03-08T03:03:35;12.10;;;10.65;;
14592;SDS011;7383;52.354;9.756;2024-03-08T03:06:01;11.65;;;10.27;;
14592;SDS011;7383;52.354;9.756;2024-03-08T03:08:28;12.32;;;10.82;;
14592;SDS011;7383;52.354;9.756;2024-03-08T03:10:54;12.18;;;10.57;;
14592;SDS011;7383;52.354;9.756;2024-03-08T03:13:22;11.70;;;10.48;;
14592;SDS011;7383;52.354;9.756;2024-03-08T03:15:49;11.38;;;10.15;;
14592;SDS011;7383;52.354;9.756;2024-03-08T03:18:16;12.25;;;10.88;;
14592;SDS011;7383;52.354;9.756;2024-03-08T03:20:46;11.73;;;10.43;;
14592;SDS011;7383;52.354;9.756;2024-03-08T03:23:12;12.45;;;10.73;;
14592;SDS011;7383;52.354;9.756;2024-03-08T03:25:39;10.77;;;9.68;;
14592;SDS011;7383;52.354;9.756;2024-03-08T03:28:06;13.75;;;10.90;;
14592;SDS011;7383;52.354;9.756;2024-03-08T03:30:34;12.10;;;10.48;;
14592;SDS011;7383;52.354;9.756;2024-03-08T03:33:00;11.85;;;10.68;;
14592;SDS011;7383;52.354;9.756;2024-03-08T03:35:27;11.25;;;10.05;;
14592;SDS011;7383;52.354;9.756;2024-03-08T03:37:54;12.32;;;11.02;;
14592;SDS011;7383;52.354;9.756;2024-03-08T03:40:31;11.65;;;10.43;;
14592;SDS011;7383;52.354;9.756;2024-03-08T03:42:57;11.75;;;10.55;;
14592;SDS011;7383;52.354;9.756;2024-03-08T03:45:24;12.80;;;11.00;;
14592;SDS011;7383;52.354;9.756;2024-03-08T03:47:51;11.32;;;10.00;;
14592;SDS011;7383;52.354;9.756;2024-03-08T03:50:18;11.82;;;10.63;;
14592;SDS011;7383;52.354;9.756;2024-03-08T03:52:45;12.75;;;10.30;;
14592;SDS011;7383;52.354;9.756;2024-03-08T03:55:11;12.13;;;10.82;;
14592;SDS011;7383;52.354;9.756;2024-03-08T03:57:38;11.73;;;10.52;;
14592;SDS011;7383;52.354;9.756;2024-03-08T04:00:05;13.00;;;11.10;;
14592;SDS011;7383;52.354;9.756;2024-03-08T04:02:31;12.18;;;10.52;;
14592;SDS011;7383;52.354;9.756;2024-03-08T04:04:59;12.40;;;10.57;;
14592;SDS011;7383;52.354;9.756;2024-03-08T04:07:25;11.40;;;10.00;;
14592;SDS011;7383;52.354;9.756;2024-03-08T04:09:52;13.77;;;11.00;;
14592;SDS011;7383;52.354;9.756;2024-03-08T04:12:18;12.88;;;10.38;;
14592;SDS011;7383;52.354;9.756;2024-03-08T04:14:44;11.82;;;10.38;;
14592;SDS011;7383;52.354;9.756;2024-03-08T04:17:10;13.27;;;10.90;;
14592;SDS011;7383;52.354;9.756;2024-03-08T04:19:37;11.13;;;9.95;;
14592;SDS011;7383;52.354;9.756;2024-03-08T04:22:06;11.45;;;10.35;;
14592;SDS011;7383;52.354;9.756;2024-03-08T04:24:33;12.60;;;10.63;;
14592;SDS011;7383;52.354;9.756;2024-03-08T04:26:59;12.75;;;10.93;;
14592;SDS011;7383;52.354;9.756;2024-03-08T04:29:25;12.77;;;10.88;;
14592;SDS011;7383;52.354;9.756;2024-03-08T04:31:52;11.98;;;10.55;;
14592;SDS011;7383;52.354;9.756;2024-03-08T04:34:19;12.10;;;10.15;;
14592;SDS011;7383;52.354;9.756;2024-03-08T04:36:45;11.57;;;10.25;;
14592;SDS011;7383;52.354;9.756;2024-03-08T04:39:13;12.07;;;10.38;;
14592;SDS011;7383;52.354;9.756;2024-03-08T04:41:40;11.68;;;10.45;;
14592;SDS011;7383;52.354;9.756;2024-03-08T04:44:08;12.43;;;10.93;;
14592;SDS011;7383;52.354;9.756;2024-03-08T04:46:34;11.68;;;10.45;;
14592;SDS011;7383;52.354;9.756;2024-03-08T04:49:01;11.70;;;10.48;;
14592;SDS011;7383;52.354;9.756;2024-03-08T04:51:27;12.77;;;11.00;;
14592;SDS011;7383;52.354;9.756;2024-03-08T04:53:53;12.50;;;11.23;;
14592;SDS011;7383;52.354;9.756;2024-03-08T04:56:21;11.98;;;10.70;;
14592;SDS011;7383;52.354;9.756;2024-03-08T04:58:47;12.13;;;10.43;;
14592;SDS011;7383;52.354;9.756;2024-03-08T05:01:14;11.35;;;10.15;;
14592;SDS011;7383;52.354;9.756;2024-03-08T05:03:41;13.57;;;10.60;;
14592;SDS011;7383;52.354;9.756;2024-03-08T05:06:07;11.25;;;10.05;;
14592;SDS011;7383;52.354;9.756;2024-03-08T05:08:33;12.52;;;10.73;;
14592;SDS011;7383;52.354;9.756;2024-03-08T05:10:59;13.52;;;11.07;;
14592;SDS011;7383;52.354;9.756;2024-03-08T05:13:30;12.15;;;10.75;;
14592;SDS011;7383;52.354;9.756;2024-03-08T05:15:56;12.68;;;11.15;;
14592;SDS011;7383;52.354;9.756;2024-03-08T05:18:23;13.45;;;11.07;;
14592;SDS011;7383;52.354;9.756;2024-03-08T05:20:49;12.38;;;10.52;;
14592;SDS011;7383;52.354;9.756;2024-03-08T05:23:16;13.05;;;11.32;;
14592;SDS011;7383;52.354;9.756;2024-03-08T05:25:44;12.85;;;11.25;;
14592;SDS011;7383;52.354;9.756;2024-03-08T05:28:11;12.32;;;11.02;;
14592;SDS011;7383;52.354;9.756;2024-03-08T05:30:39;13.25;;;11.05;;
14592;SDS011;7383;52.354;9.756;2024-03-08T05:33:06;12.98;;;11.57;;
14592;SDS011;7383;52.354;9.756;2024-03-08T05:35:35;13.98;;;11.13;;
14592;SDS011;7383;52.354;9.756;2024-03-08T05:38:01;13.02;;;11.45;;
14592;SDS011;7383;52.354;9.756;2024-03-08T05:40:27;13.75;;;12.18;;
14592;SDS011;7383;52.354;9.756;2024-03-08T05:42:56;12.90;;;11.57;;
14592;SDS011;7383;52.354;9.756;2024-03-08T05:45:23;13.70;;;11.30;;
14592;SDS011;7383;52.354;9.756;2024-03-08T05:47:51;13.57;;;10.98;;
14592;SDS011;7383;52.354;9.756;2024-03-08T05:50:17;14.10;;;11.73;;
14592;SDS011;7383;52.354;9.756;2024-03-08T05:52:44;12.68;;;11.35;;
14592;SDS011;7383;52.354;9.756;2024-03-08T05:55:10;13.13;;;11.68;;
14592;SDS011;7383;52.354;9.756;2024-03-08T05:57:39;13.57;;;11.25;;
14592;SDS011;7383;52.354;9.756;2024-03-08T06:00:06;13.15;;;11.30;;
14592;SDS011;7383;52.354;9.756;2024-03-08T06:02:32;13.52;;;11.23;;
14592;SDS011;7383;52.354;9.756;2024-03-08T06:05:00;14.00;;;12.52;;
14592;SDS011;7383;52.354;9.756;2024-03-08T06:07:27;13.07;;;11.77;;
14592;SDS011;7383;52.354;9.756;2024-03-08T06:09:53;13.05;;;11.43;;
14592;SDS011;7383;52.354;9.756;2024-03-08T06:12:19;12.80;;;11.50;;
14592;SDS011;7383;52.354;9.756;2024-03-08T06:14:46;13.48;;;11.38;;
14592;SDS011;7383;52.354;9.756;2024-03-08T06:17:12;13.70;;;11.63;;
14592;SDS011;7383;52.354;9.756;2024-03-08T06:19:38;13.75;;;12.25;;
14592;SDS011;7383;52.354;9.756;2024-03-08T06:22:06;13.45;;;12.05;;
14592;SDS011;7383;52.354;9.756;2024-03-08T06:24:33;12.43;;;11.13;;
14592;SDS011;7383;52.354;9.756;2024-03-08T06:27:01;13.82;;;11.60;;
14592;SDS011;7383;52.354;9.756;2024-03-08T06:29:27;13.52;;;11.98;;
14592;SDS011;7383;52.354;9.756;2024-03-08T06:31:54;13.55;;;12.02;;
14592;SDS011;7383;52.354;9.756;2024-03-08T06:34:21;13.48;;;11.57;;
14592;SDS011;7383;52.354;9.756;2024-03-08T06:36:47;13.85;;;11.52;;
14592;SDS011;7383;52.354;9.756;2024-03-08T06:39:15;13.88;;;12.25;;
14592;SDS011;7383;52.354;9.756;2024-03-08T06:41:42;14.00;;;12.38;;
14592;SDS011;7383;52.354;9.756;2024-03-08T06:44:09;13.73;;;12.32;;
14592;SDS011;7383;52.354;9.756;2024-03-08T06:46:36;13.38;;;11.95;;
14592;SDS011;7383;52.354;9.756;2024-03-08T06:49:03;14.75;;;12.48;;
14592;SDS011;7383;52.354;9.756;2024-03-08T06:51:29;14.82;;;13.23;;
14592;SDS011;7383;52.354;9.756;2024-03-08T06:53:55;13.65;;;12.00;;
14592;SDS011;7383;52.354;9.756;2024-03-08T06:56:23;14.18;;;12.68;;
14592;SDS011;7383;52.354;9.756;2024-03-08T06:58:50;15.30;;;13.27;;
14592;SDS011;7383;52.354;9.756;2024-03-08T07:01:16;14.55;;;12.50;;
14592;SDS011;7383;52.354;9.756;2024-03-08T07:03:43;14.55;;;12.68;;
14592;SDS011;7383;52.354;9.756;2024-03-08T07:06:09;14.10;;;12.63;;
14592;SDS011;7383;52.354;9.756;2024-03-08T07:08:36;14.18;;;12.63;;
14592;SDS011;7383;52.354;9.756;2024-03-08T07:11:02;15.38;;;12.77;;
14592;SDS011;7383;52.354;9.756;2024-03-08T07:13:30;14.10;;;12.65;;
14592;SDS011;7383;52.354;9.756;2024-03-08T07:15:56;15.30;;;13.15;;
14592;SDS011;7383;52.354;9.756;2024-03-08T07:18:25;14.07;;;12.68;;
14592;SDS011;7383;52.354;9.756;2024-03-08T07:20:52;13.38;;;11.98;;
14592;SDS011;7383;52.354;9.756;2024-03-08T07:23:19;14.18;;;12.68;;
14592;SDS011;7383;52.354;9.756;2024-03-08T07:25:59;14.73;;;12.65;;
14592;SDS011;7383;52.354;9.756;2024-03-08T07:28:26;14.50;;;13.05;;
14592;SDS011;7383;52.354;9.756;2024-03-08T07:30:54;15.55;;;13.13;;
14592;SDS011;7383;52.354;9.756;2024-03-08T07:33:33;14.57;;;13.05;;
14592;SDS011;7383;52.354;9.756;2024-03-08T07:36:00;13.15;;;11.75;;
14592;SDS011;7383;52.354;9.756;2024-03-08T07:38:27;15.02;;;13.02;;
14592;SDS011;7383;52.354;9.756;2024-03-08T07:40:54;16.40;;;14.20;;
14592;SDS011;7383;52.354;9.756;2024-03-08T07:43:27;15.25;;;13.65;;
14592;SDS011;7383;52.354;9.756;2024-03-08T07:45:55;14.25;;;12.85;;
14592;SDS011;7383;52.354;9.756;2024-03-08T07:48:22;14.65;;;12.70;;
14592;SDS011;7383;52.354;9.756;2024-03-08T07:50:49;14.95;;;13.05;;
14592;SDS011;7383;52.354;9.756;2024-03-08T07:53:15;14.50;;;13.00;;
14592;SDS011;7383;52.354;9.756;2024-03-08T07:55:42;14.35;;;12.52;;
14592;SDS011;7383;52.354;9.756;2024-03-08T07:58:09;14.93;;;13.02;;
14592;SDS011;7383;52.354;9.756;2024-03-08T08:00:38;15.40;;;13.35;;
14592;SDS011;7383;52.354;9.756;2024-03-08T08:03:07;14.40;;;12.90;;
14592;SDS011;7383;52.354;9.756;2024-03-08T08:05:34;14.48;;;12.48;;
14592;SDS011;7383;52.354;9.756;2024-03-08T08:08:03;15.15;;;12.75;;
14592;SDS011;7383;52.354;9.756;2024-03-08T08:10:31;13.43;;;11.98;;
14592;SDS011;7383;52.354;9.756;2024-03-08T08:12:58;14.88;;;12.63;;
14592;SDS011;7383;52.354;9.756;2024-03-08T08:15:24;13.85;;;12.40;;
14592;SDS011;7383;52.354;9.756;2024-03-08T08:17:50;14.95;;;13.40;;
14592;SDS011;7383;52.354;9.756;2024-03-08T08:20:19;14.57;;;12.65;;
14592;SDS011;7383;52.354;9.756;2024-03-08T08:22:46;13.52;;;12.18;;
14592;SDS011;7383;52.354;9.756;2024-03-08T08:25:13;15.35;;;12.70;;
14592;SDS011;7383;52.354;9.756;2024-03-08T08:27:40;15.43;;;13.50;;
14592;SDS011;7383;52.354;9.756;2024-03-08T08:30:07;14.40;;;12.93;;
14592;SDS011;7383;52.354;9.756;2024-03-08T08:32:34;14.77;;;13.27;;
14592;SDS011;7383;52.354;9.756;2024-03-08T08:35:01;16.27;;;14.57;;
14592;SDS011;7383;52.354;9.756;2024-03-08T08:37:31;16.77;;;14.13;;
14592;SDS011;7383;52.354;9.756;2024-03-08T08:39:57;16.83;;;15.07;;
14592;SDS011;7383;52.354;9.756;2024-03-08T08:42:23;17.20;;;15.10;;
14592;SDS011;7383;52.354;9.756;2024-03-08T08:44:50;14.98;;;13.38;;
14592;SDS011;7383;52.354;9.756;2024-03-08T08:47:17;14.57;;;13.07;;
14592;SDS011;7383;52.354;9.756;2024-03-08T08:49:44;16.10;;;14.48;;
14592;SDS011;7383;52.354;9.756;2024-03-08T08:52:11;15.95;;;14.07;;
14592;SDS011;7383;52.354;9.756;2024-03-08T08:54:39;15.85;;;14.07;;
14592;SDS011;7383;52.354;9.756;2024-03-08T08:57:06;15.73;;;14.13;;
14592;SDS011;7383;52.354;9.756;2024-03-08T08:59:33;14.73;;;13.13;;
14592;SDS011;7383;52.354;9.756;2024-03-08T09:02:00;15.13;;;13.55;;
14592;SDS011;7383;52.354;9.756;2024-03-08T09:04:27;16.80;;;15.00;;
14592;SDS011;7383;52.354;9.756;2024-03-08T09:06:54;16.05;;;14.35;;
14592;SDS011;7383;52.354;9.756;2024-03-08T09:09:21;14.65;;;13.23;;
14592;SDS011;7383;52.354;9.756;2024-03-08T09:11:49;15.13;;;13.00;;
14592;SDS011;7383;52.354;9.756;2024-03-08T09:14:16;15.35;;;13.77;;
14592;SDS011;7383;52.354;9.756;2024-03-08T09:16:42;14.98;;;13.40;;
14592;SDS011;7383;52.354;9.756;2024-03-08T09:19:08;14.82;;;13.32;;
14592;SDS011;7383;52.354;9.756;2024-03-08T09:21:35;14.40;;;12.98;;
14592;SDS011;7383;52.354;9.756;2024-03-08T09:24:02;14.55;;;13.05;;
14592;SDS011;7383;52.354;9.756;2024-03-08T09:26:29;14.63;;;13.15;;
14592;SDS011;7383;52.354;9.756;2024-03-08T09:29:02;14.52;;;13.02;;
14592;SDS011;7383;52.354;9.756;2024-03-08T09:31:30;15.48;;;13.82;;
14592;SDS011;7383;52.354;9.756;2024-03-08T09:33:56;16.02;;;14.32;;
14592;SDS011;7383;52.354;9.756;2024-03-08T09:36:23;15.00;;;13.40;;
14592;SDS011;7383;52.354;9.756;2024-03-08T09:38:50;16.45;;;14.70;;
14592;SDS011;7383;52.354;9.756;2024-03-08T09:41:19;14.65;;;13.18;;
14592;SDS011;7383;52.354;9.756;2024-03-08T09:43:50;15.27;;;13.68;;
14592;SDS011;7383;52.354;9.756;2024-03-08T09:46:18;16.10;;;14.43;;
14592;SDS011;7383;52.354;9.756;2024-03-08T09:48:45;15.02;;;13.52;;
14592;SDS011;7383;52.354;9.756;2024-03-08T09:51:14;13.80;;;12.38;;
14592;SDS011;7383;52.354;9.756;2024-03-08T09:53:43;15.10;;;13.57;;
14592;SDS011;7383;52.354;9.756;2024-03-08T09:56:09;14.73;;;13.18;;
14592;SDS011;7383;52.354;9.756;2024-03-08T09:58:37;16.23;;;14.55;;
14592;SDS011;7383;52.354;9.756;2024-03-08T10:01:20;14.88;;;13.35;;
14592;SDS011;7383;52.354;9.756;2024-03-08T10:14:07;16.75;;;14.98;;
14592;SDS011;7383;52.354;9.756;2024-03-08T10:16:35;15.38;;;13.80;;
14592;SDS011;7383;52.354;9.756;2024-03-08T10:19:01;15.95;;;14.35;;
14592;SDS011;7383;52.354;9.756;2024-03-08T10:21:28;14.65;;;13.15;;
14592;SDS011;7383;52.354;9.756;2024-03-08T10:23:57;15.75;;;14.15;;
14592;SDS011;7383;52.354;9.756;2024-03-08T10:26:34;15.15;;;13.32;;
14592;SDS011;7383;52.354;9.756;2024-03-08T10:29:02;15.70;;;14.05;;
14592;SDS011;7383;52.354;9.756;2024-03-08T10:31:29;16.08;;;14.38;;
14592;SDS011;7383;52.354;9.756;2024-03-08T10:34:10;17.10;;;15.30;;
14592;SDS011;7383;52.354;9.756;2024-03-08T10:36:40;18.30;;;16.40;;
14592;SDS011;7383;52.354;9.756;2024-03-08T10:39:08;16.65;;;14.57;;
14592;SDS011;7383;52.354;9.756;2024-03-08T10:41:37;18.27;;;16.38;;
14592;SDS011;7383;52.354;9.756;2024-03-08T10:44:09;16.58;;;14.68;;
14592;SDS011;7383;52.354;9.756;2024-03-08T10:46:39;16.55;;;14.88;;
14592;SDS011;7383;52.354;9.756;2024-03-08T10:49:16;18.98;;;16.98;;
14592;SDS011;7383;52.354;9.756;2024-03-08T10:51:43;17.63;;;15.73;;
14592;SDS011;7383;52.354;9.756;2024-03-08T10:54:11;16.73;;;14.60;;
14592;SDS011;7383;52.354;9.756;2024-03-08T10:56:41;15.50;;;13.75;;
14592;SDS011;7383;52.354;9.756;2024-03-08T10:59:07;15.73;;;14.13;;
14592;SDS011;7383;52.354;9.756;2024-03-08T11:01:34;16.13;;;14.43;;
14592;SDS011;7383;52.354;9.756;2024-03-08T11:04:03;15.98;;;14.32;;
14592;SDS011;7383;52.354;9.756;2024-03-08T11:06:42;15.43;;;13.82;;
14592;SDS011;7383;52.354;9.756;2024-03-08T11:09:11;13.73;;;12.32;;
14592;SDS011;7383;52.354;9.756;2024-03-08T11:11:54;16.17;;;14.43;;
14592;SDS011;7383;52.354;9.756;2024-03-08T11:14:45;14.18;;;12.80;;
14592;SDS011;7383;52.354;9.756;2024-03-08T11:17:13;16.13;;;14.02;;
14592;SDS011;7383;52.354;9.756;2024-03-08T11:19:44;13.23;;;11.93;;
14592;SDS011;7383;52.354;9.756;2024-03-08T11:22:13;14.68;;;13.18;;
14592;SDS011;7383;52.354;9.756;2024-03-08T11:24:46;14.30;;;12.80;;
14592;SDS011;7383;52.354;9.756;2024-03-08T11:27:12;13.25;;;12.00;;
14592;SDS011;7383;52.354;9.756;2024-03-08T11:29:38;14.85;;;13.35;;
14592;SDS011;7383;52.354;9.756;2024-03-08T11:32:09;14.55;;;13.05;;
14592;SDS011;7383;52.354;9.756;2024-03-08T11:34:35;14.77;;;13.32;;
14592;SDS011;7383;52.354;9.756;2024-03-08T11:37:03;14.05;;;12.65;;
14592;SDS011;7383;52.354;9.756;2024-03-08T11:39:30;14.50;;;13.00;;
14592;SDS011;7383;52.354;9.756;2024-03-08T11:41:56;13.07;;;11.77;;
14592;SDS011;7383;52.354;9.756;2024-03-08T11:44:26;13.27;;;11.82;;
14592;SDS011;7383;52.354;9.756;2024-03-08T11:46:52;13.65;;;12.18;;
14592;SDS011;7383;52.354;9.756;2024-03-08T11:49:20;13.18;;;11.88;;
14592;SDS011;7383;52.354;9.756;2024-03-08T11:51:47;13.02;;;11.73;;
14592;SDS011;7383;52.354;9.756;2024-03-08T11:54:17;14.30;;;12.82;;
14592;SDS011;7383;52.354;9.756;2024-03-08T11:56:43;14.43;;;13.02;;
14592;SDS011;7383;52.354;9.756;2024-03-08T11:59:12;15.43;;;13.82;;
14592;SDS011;7383;52.354;9.756;2024-03-08T12:01:38;14.05;;;12.63;;
14592;SDS011;7383;52.354;9.756;2024-03-08T12:04:05;13.65;;;12.25;;
14592;SDS011;7383;52.354;9.756;2024-03-08T12:06:37;15.10;;;13.60;;
14592;SDS011;7383;52.354;9.756;2024-03-08T12:09:07;13.55;;;12.20;;
14592;SDS011;7383;52.354;9.756;2024-03-08T12:11:34;14.00;;;12.68;;
14592;SDS011;7383;52.354;9.756;2024-03-08T12:14:01;13.45;;;12.15;;
14592;SDS011;7383;52.354;9.756;2024-03-08T12:16:27;14.95;;;13.50;;
14592;SDS011;7383;52.354;9.756;2024-03-08T12:18:53;14.00;;;12.60;;
14592;SDS011;7383;52.354;9.756;2024-03-08T12:21:20;12.25;;;11.05;;
14592;SDS011;7383;52.354;9.756;2024-03-08T12:23:51;12.88;;;11.57;;
14592;SDS011;7383;52.354;9.756;2024-03-08T12:26:27;12.18;;;11.02;;
14592;SDS011;7383;52.354;9.756;2024-03-08T12:29:13;11.88;;;10.68;;
14592;SDS011;7383;52.354;9.756;2024-03-08T12:31:40;12.93;;;11.65;;
14592;SDS011;7383;52.354;9.756;2024-03-08T12:34:07;11.82;;;10.73;;
14592;SDS011;7383;52.354;9.756;2024-03-08T12:36:35;11.82;;;10.70;;
14592;SDS011;7383;52.354;9.756;2024-03-08T12:39:03;11.10;;;10.00;;
14592;SDS011;7383;52.354;9.756;2024-03-08T12:41:29;11.48;;;10.38;;
14592;SDS011;7383;52.354;9.756;2024-03-08T12:43:57;12.00;;;10.80;;
14592;SDS011;7383;52.354;9.756;2024-03-08T12:46:23;11.77;;;10.57;;
14592;SDS011;7383;52.354;9.756;2024-03-08T12:48:51;10.82;;;9.82;;
14592;SDS011;7383;52.354;9.756;2024-03-08T12:51:19;10.52;;;9.45;;
14592;SDS011;7383;52.354;9.756;2024-03-08T12:53:45;10.07;;;9.18;;
14592;SDS011;7383;52.354;9.756;2024-03-08T12:56:14;10.10;;;9.10;;
14592;SDS011;7383;52.354;9.756;2024-03-08T12:58:45;10.48;;;9.55;;
14592;SDS011;7383;52.354;9.756;2024-03-08T13:01:12;10.38;;;9.48;;
14592;SDS011;7383;52.354;9.756;2024-03-08T13:03:38;10.35;;;9.35;;
14592;SDS011;7383;52.354;9.756;2024-03-08T13:06:05;8.63;;;7.93;;
14592;SDS011;7383;52.354;9.756;2024-03-08T13:08:33;8.60;;;7.90;;
14592;SDS011;7383;52.354;9.756;2024-03-08T13:11:03;9.52;;;8.73;;
14592;SDS011;7383;52.354;9.756;2024-03-08T13:13:31;10.60;;;9.60;;
14592;SDS011;7383;52.354;9.756;2024-03-08T13:16:00;10.88;;;9.90;;
14592;SDS011;7383;52.354;9.756;2024-03-08T13:18:26;11.90;;;10.73;;
14592;SDS011;7383;52.354;9.756;2024-03-08T13:20:54;11.50;;;10.50;;
14592;SDS011;7383;52.354;9.756;2024-03-08T13:23:20;12.18;;;11.07;;
14592;SDS011;7383;52.354;9.756;2024-03-08T13:25:46;11.63;;;10.63;;
14592;SDS011;7383;52.354;9.756;2024-03-08T13:28:13;11.35;;;10.35;;
14592;SDS011;7383;52.354;9.756;2024-03-08T13:30:41;12.15;;;11.05;;
14592;SDS011;7383;52.354;9.756;2024-03-08T13:33:09;12.38;;;11.23;;
14592;SDS011;7383;52.354;9.756;2024-03-08T13:35:36;13.20;;;12.00;;
14592;SDS011;7383;52.354;9.756;2024-03-08T13:38:03;12.40;;;11.20;;
14592;SDS011;7383;52.354;9.756;2024-03-08T13:40:30;11.02;;;10.02;;
14592;SDS011;7383;52.354;9.756;2024-03-08T13:42:56;11.60;;;10.57;;
14592;SDS011;7383;52.354;9.756;2024-03-08T13:45:25;10.98;;;9.98;;
14592;SDS011;7383;52.354;9.756;2024-03-08T13:47:54;11.52;;;10.43;;
14592;SDS011;7383;52.354;9.756;2024-03-08T13:50:20;12.15;;;11.05;;
14592;SDS011;7383;52.354;9.756;2024-03-08T13:52:47;12.18;;;10.95;;
14592;SDS011;7383;52.354;9.756;2024-03-08T13:55:16;11.52;;;10.52;;
14592;SDS011;7383;52.354;9.756;2024-03-08T13:57:42;11.57;;;10.48;;
14592;SDS011;7383;52.354;9.756;2024-03-08T14:00:10;11.15;;;10.15;;
14592;SDS011;7383;52.354;9.756;2024-03-08T14:02:37;11.07;;;10.07;;
14592;SDS011;7383;52.354;9.756;2024-03-08T14:05:08;11.05;;;10.10;;
14592;SDS011;7383;52.354;9.756;2024-03-08T14:07:34;11.60;;;10.48;;
14592;SDS011;7383;52.354;9.756;2024-03-08T14:10:00;11.18;;;10.18;;
14592;SDS011;7383;52.354;9.756;2024-03-08T14:12:27;10.35;;;9.45;;
14592;SDS011;7383;52.354;9.756;2024-03-08T14:14:53;10.48;;;9.48;;
14592;SDS011;7383;52.354;9.756;2024-03-08T14:17:19;9.80;;;8.90;;
14592;SDS011;7383;52.354;9.756;2024-03-08T14:19:46;10.35;;;9.45;;
14592;SDS011;7383;52.354;9.756;2024-03-08T14:22:14;10.10;;;9.27;;
14592;SDS011;7383;52.354;9.756;2024-03-08T14:24:40;9.38;;;8.57;;
14592;SDS011;7383;52.354;9.756;2024-03-08T14:27:07;10.10;;;9.20;;
14592;SDS011;7383;52.354;9.756;2024-03-08T14:29:34;9.95;;;9.10;;
14592;SDS011;7383;52.354;9.756;2024-03-08T14:32:00;9.05;;;8.25;;
14592;SDS011;7383;52.354;9.756;2024-03-08T14:34:28;8.75;;;7.97;;
14592;SDS011;7383;52.354;9.756;2024-03-08T14:36:55;9.00;;;8.30;;
14592;SDS011;7383;52.354;9.756;2024-03-08T14:39:22;9.13;;;8.32;;
14592;SDS011;7383;52.354;9.756;2024-03-08T14:41:51;9.48;;;8.57;;
14592;SDS011;7383;52.354;9.756;2024-03-08T14:44:18;8.90;;;8.10;;
14592;SDS011;7383;52.354;9.756;2024-03-08T14:46:44;9.48;;;8.52;;
14592;SDS011;7383;52.354;9.756;2024-03-08T14:49:11;9.80;;;9.00;;
14592;SDS011;7383;52.354;9.756;2024-03-08T14:51:37;9.95;;;9.15;;